createdAt,value
2024-02-22T00:00:02.854Z,69
2024-02-22T00:20:03.185Z,68
2024-02-22T00:40:02.985Z,68
2024-02-22T01:00:02.350Z,68
2024-02-22T02:00:02.675Z,67
2024-02-22T02:20:02.753Z,66
2024-02-22T02:40:02.209Z,66
2024-02-22T03:00:03.010Z,66
2024-02-22T03:20:03.104Z,65
2024-02-22T03:40:02.522Z,65
2024-02-22T04:00:03.172Z,66
2024-02-22T04:20:03.152Z,66
2024-02-22T04:40:02.656Z,66
2024-02-22T05:00:03.450Z,66
2024-02-22T05:20:03.442Z,66
2024-02-22T05:40:02.845Z,67
2024-02-22T06:00:07.235Z,68
2024-02-22T06:20:03.068Z,70
2024-02-22T06:40:02.816Z,72
2024-02-22T07:00:03.247Z,73
2024-02-22T07:20:03.112Z,74
2024-02-22T07:40:02.677Z,76
2024-02-22T08:00:03.289Z,77
2024-02-22T08:20:03.498Z,78
2024-02-22T08:40:19.813Z,79
2024-02-22T09:00:02.726Z,80
2024-02-22T09:20:03.117Z,81
2024-02-22T09:40:02.866Z,82
2024-02-22T10:00:02.709Z,82
2024-02-22T10:20:03.052Z,82
2024-02-22T10:40:05.410Z,83
2024-02-22T11:00:03.061Z,83
2024-02-22T11:20:02.638Z,83
2024-02-22T11:40:02.980Z,83
2024-02-22T12:00:02.981Z,82
2024-02-22T12:20:03.268Z,82
2024-02-22T12:40:02.805Z,82
2024-02-22T13:00:02.446Z,83
2024-02-22T13:20:02.725Z,83
2024-02-22T13:40:15.090Z,84
2024-02-22T14:00:02.624Z,84
2024-02-22T14:20:02.937Z,84
2024-02-22T14:40:07.422Z,84
2024-02-22T15:00:04.433Z,83
2024-02-22T15:20:03.309Z,82
2024-02-22T15:40:02.970Z,82
2024-02-22T16:00:12.727Z,82
2024-02-22T16:20:02.956Z,82
2024-02-22T16:40:02.636Z,82
2024-02-22T17:00:03.087Z,82
2024-02-22T17:20:02.972Z,82
2024-02-22T17:40:02.437Z,82
2024-02-22T18:00:02.824Z,81
2024-02-22T18:20:03.235Z,81
2024-02-22T18:40:02.785Z,82
2024-02-22T19:00:03.123Z,82
2024-02-22T19:20:03.476Z,83
2024-02-22T19:40:03.227Z,82
2024-02-22T20:00:07.598Z,82
2024-02-22T20:20:02.725Z,82
2024-02-22T20:40:03.408Z,82
2024-02-22T21:00:02.832Z,81
2024-02-22T21:20:02.691Z,81
2024-02-22T21:40:03.090Z,82
2024-02-22T22:00:04.450Z,83
2024-02-22T22:20:02.587Z,84
2024-02-22T22:40:03.135Z,85
2024-02-22T23:00:04.282Z,85
2024-02-22T23:20:02.455Z,85
2024-02-22T23:40:02.903Z,85
